sensor_id;sensor_type;location;lat;lon;timestamp;P1;P2;P0
68841;PMS5003;55849;48.482;2.332;2022-07-23T05:18:37;27.25;22.75;13.75
68841;PMS5003;55849;48.482;2.332;2022-07-23T05:21:39;27.75;24.25;15.25
68841;PMS5003;55849;48.482;2.332;2022-07-23T05:24:40;31.50;25.75;16.00
68841;PMS5003;55849;48.482;2.332;2022-07-23T05:27:43;24.75;24.50;16.00
68841;PMS5003;55849;48.482;2.332;2022-07-23T05:30:44;29.25;24.25;17.25
68841;PMS5003;55849;48.482;2.332;2022-07-23T05:33:47;33.75;29.25;16.50
68841;PMS5003;55849;48.482;2.332;2022-07-23T05:36:49;29.75;26.50;17.50
68841;PMS5003;55849;48.482;2.332;2022-07-23T05:39:50;29.25;27.75;19.00
68841;PMS5003;55849;48.482;2.332;2022-07-23T05:42:52;32.75;27.25;16.00
68841;PMS5003;55849;48.482;2.332;2022-07-23T05:45:54;29.50;25.25;14.25
68841;PMS5003;55849;48.482;2.332;2022-07-23T05:48:57;29.75;24.00;16.25
68841;PMS5003;55849;48.482;2.332;2022-07-23T05:51:58;28.75;25.00;15.00
68841;PMS5003;55849;48.482;2.332;2022-07-23T05:55:04;33.50;28.00;17.50
68841;PMS5003;55849;48.482;2.332;2022-07-23T05:58:06;31.75;26.50;16.00
68841;PMS5003;55849;48.482;2.332;2022-07-23T06:01:08;25.75;23.50;15.50
68841;PMS5003;55849;48.482;2.332;2022-07-23T06:04:13;29.75;25.75;14.50
68841;PMS5003;55849;48.482;2.332;2022-07-23T06:07:14;25.75;23.50;15.25
68841;PMS5003;55849;48.482;2.332;2022-07-23T06:10:16;35.25;25.75;15.75
68841;PMS5003;55849;48.482;2.332;2022-07-23T06:13:18;29.50;24.75;16.00
68841;PMS5003;55849;48.482;2.332;2022-07-23T06:16:20;26.25;24.25;15.75
68841;PMS5003;55849;48.482;2.332;2022-07-23T06:19:23;29.50;27.00;17.50
68841;PMS5003;55849;48.482;2.332;2022-07-23T06:22:24;30.75;29.75;18.25
68841;PMS5003;55849;48.482;2.332;2022-07-23T06:25:26;35.75;27.75;17.75
68841;PMS5003;55849;48.482;2.332;2022-07-23T06:28:28;25.75;21.50;14.50
68841;PMS5003;55849;48.482;2.332;2022-07-23T06:31:29;30.00;26.50;17.25
68841;PMS5003;55849;48.482;2.332;2022-07-23T06:34:32;30.75;27.50;19.00
68841;PMS5003;55849;48.482;2.332;2022-07-23T06:37:34;30.75;28.75;17.25
68841;PMS5003;55849;48.482;2.332;2022-07-23T06:40:36;33.50;30.75;16.50
68841;PMS5003;55849;48.482;2.332;2022-07-23T06:43:37;34.75;26.25;17.75
68841;PMS5003;55849;48.482;2.332;2022-07-23T06:46:39;37.50;31.75;17.50
68841;PMS5003;55849;48.482;2.332;2022-07-23T06:49:42;34.00;29.50;20.75
68841;PMS5003;55849;48.482;2.332;2022-07-23T06:52:43;30.50;24.75;16.25
68841;PMS5003;55849;48.482;2.332;2022-07-23T06:55:45;32.25;27.00;16.00
68841;PMS5003;55849;48.482;2.332;2022-07-23T06:58:47;30.00;27.00;15.75
68841;PMS5003;55849;48.482;2.332;2022-07-23T07:01:48;30.50;26.00;16.50
68841;PMS5003;55849;48.482;2.332;2022-07-23T07:04:51;34.75;26.75;16.00
68841;PMS5003;55849;48.482;2.332;2022-07-23T07:07:53;33.00;29.00;18.25
68841;PMS5003;55849;48.482;2.332;2022-07-23T07:10:55;32.00;25.50;17.00
68841;PMS5003;55849;48.482;2.332;2022-07-23T07:13:56;33.00;29.00;18.75
68841;PMS5003;55849;48.482;2.332;2022-07-23T07:16:58;28.00;24.25;15.25
68841;PMS5003;55849;48.482;2.332;2022-07-23T07:20:01;28.25;27.00;16.75
68841;PMS5003;55849;48.482;2.332;2022-07-23T07:23:03;36.25;32.50;17.50
68841;PMS5003;55849;48.482;2.332;2022-07-23T07:26:05;35.00;27.25;18.50
68841;PMS5003;55849;48.482;2.332;2022-07-23T07:29:06;32.75;31.25;18.50
68841;PMS5003;55849;48.482;2.332;2022-07-23T07:32:08;27.75;24.50;18.25
68841;PMS5003;55849;48.482;2.332;2022-07-23T07:35:11;32.75;29.00;16.50
68841;PMS5003;55849;48.482;2.332;2022-07-23T07:38:13;28.50;25.75;16.00
68841;PMS5003;55849;48.482;2.332;2022-07-23T07:41:14;32.25;26.75;17.75
68841;PMS5003;55849;48.482;2.332;2022-07-23T07:44:16;29.75;26.00;15.25
68841;PMS5003;55849;48.482;2.332;2022-07-23T07:47:18;28.50;28.50;18.50
68841;PMS5003;55849;48.482;2.332;2022-07-23T07:50:21;33.50;28.50;16.50
68841;PMS5003;55849;48.482;2.332;2022-07-23T07:53:23;33.00;26.25;16.25
68841;PMS5003;55849;48.482;2.332;2022-07-23T07:56:24;33.25;28.00;17.00
68841;PMS5003;55849;48.482;2.332;2022-07-23T07:59:26;25.00;25.00;16.75
68841;PMS5003;55849;48.482;2.332;2022-07-23T08:02:28;32.75;24.75;17.25
68841;PMS5003;55849;48.482;2.332;2022-07-23T08:05:31;30.75;25.00;16.00
68841;PMS5003;55849;48.482;2.332;2022-07-23T08:08:33;29.00;21.25;14.25
68841;PMS5003;55849;48.482;2.332;2022-07-23T08:11:34;21.25;21.00;13.50
68841;PMS5003;55849;48.482;2.332;2022-07-23T08:14:36;27.50;24.25;13.75
68841;PMS5003;55849;48.482;2.332;2022-07-23T08:17:37;25.75;19.00;12.50
68841;PMS5003;55849;48.482;2.332;2022-07-23T08:20:40;23.50;22.50;15.25
68841;PMS5003;55849;48.482;2.332;2022-07-23T08:23:42;27.50;25.50;15.00
68841;PMS5003;55849;48.482;2.332;2022-07-23T08:26:44;22.00;18.00;11.75
68841;PMS5003;55849;48.482;2.332;2022-07-23T08:29:46;28.75;21.50;14.00
68841;PMS5003;55849;48.482;2.332;2022-07-23T08:32:48;25.00;23.00;14.25
68841;PMS5003;55849;48.482;2.332;2022-07-23T08:35:55;22.25;21.25;13.75
68841;PMS5003;55849;48.482;2.332;2022-07-23T08:38:57;22.75;20.50;12.75
68841;PMS5003;55849;48.482;2.332;2022-07-23T08:41:59;26.00;23.25;18.50
68841;PMS5003;55849;48.482;2.332;2022-07-23T08:45:00;22.75;19.75;14.00
68841;PMS5003;55849;48.482;2.332;2022-07-23T08:48:04;24.75;18.75;12.50
68841;PMS5003;55849;48.482;2.332;2022-07-23T08:51:09;20.75;19.00;13.50
68841;PMS5003;55849;48.482;2.332;2022-07-23T08:54:11;21.50;19.75;13.25
68841;PMS5003;55849;48.482;2.332;2022-07-23T08:57:13;26.50;21.50;14.50
68841;PMS5003;55849;48.482;2.332;2022-07-23T09:00:16;24.00;19.75;12.50
68841;PMS5003;55849;48.482;2.332;2022-07-23T09:03:19;27.25;22.25;16.25
68841;PMS5003;55849;48.482;2.332;2022-07-23T09:06:23;29.50;21.25;11.50
68841;PMS5003;55849;48.482;2.332;2022-07-23T09:09:24;27.50;27.00;17.50
68841;PMS5003;55849;48.482;2.332;2022-07-23T09:12:30;23.00;20.25;12.50
68841;PMS5003;55849;48.482;2.332;2022-07-23T09:15:31;26.75;22.25;15.00
68841;PMS5003;55849;48.482;2.332;2022-07-23T09:18:34;24.50;20.50;14.25
68841;PMS5003;55849;48.482;2.332;2022-07-23T09:21:40;19.75;19.75;13.00
68841;PMS5003;55849;48.482;2.332;2022-07-23T09:24:45;19.00;19.00;14.00
68841;PMS5003;55849;48.482;2.332;2022-07-23T09:28:04;23.25;20.25;15.00
68841;PMS5003;55849;48.482;2.332;2022-07-23T09:31:07;21.00;18.25;11.50
68841;PMS5003;55849;48.482;2.332;2022-07-23T09:34:10;24.00;20.50;13.75
68841;PMS5003;55849;48.482;2.332;2022-07-23T09:37:15;19.25;18.50;12.50
68841;PMS5003;55849;48.482;2.332;2022-07-23T09:40:18;23.75;20.00;14.00
68841;PMS5003;55849;48.482;2.332;2022-07-23T09:43:26;24.00;21.50;14.75
68841;PMS5003;55849;48.482;2.332;2022-07-23T09:46:28;26.25;23.75;14.00
68841;PMS5003;55849;48.482;2.332;2022-07-23T09:49:30;19.50;19.50;14.50
68841;PMS5003;55849;48.482;2.332;2022-07-23T09:52:33;25.50;21.25;14.25
68841;PMS5003;55849;48.482;2.332;2022-07-23T09:55:37;21.00;19.00;12.00
68841;PMS5003;55849;48.482;2.332;2022-07-23T09:58:39;31.00;22.25;14.00
68841;PMS5003;55849;48.482;2.332;2022-07-23T10:01:46;23.00;19.75;14.25
68841;PMS5003;55849;48.482;2.332;2022-07-23T10:04:48;17.75;16.75;11.00
68841;PMS5003;55849;48.482;2.332;2022-07-23T10:07:55;19.75;18.25;13.00
68841;PMS5003;55849;48.482;2.332;2022-07-23T10:10:58;24.25;20.25;12.50
68841;PMS5003;55849;48.482;2.332;2022-07-23T10:14:02;20.00;16.50;12.25
68841;PMS5003;55849;48.482;2.332;2022-07-23T10:17:06;20.75;18.25;12.50
68841;PMS5003;55849;48.482;2.332;2022-07-23T10:20:08;22.50;17.75;12.75
68841;PMS5003;55849;48.482;2.332;2022-07-23T10:23:14;19.25;19.00;12.25
68841;PMS5003;55849;48.482;2.332;2022-07-23T10:26:22;17.50;15.75;11.00
68841;PMS5003;55849;48.482;2.332;2022-07-23T10:29:38;23.25;21.25;13.75
68841;PMS5003;55849;48.482;2.332;2022-07-23T10:32:50;18.00;17.75;12.25
68841;PMS5003;55849;48.482;2.332;2022-07-23T10:36:02;15.75;15.75;10.25
68841;PMS5003;55849;48.482;2.332;2022-07-23T10:39:12;22.25;19.75;11.50
68841;PMS5003;55849;48.482;2.332;2022-07-23T10:42:18;21.25;19.25;12.50
68841;PMS5003;55849;48.482;2.332;2022-07-23T10:45:26;17.25;17.25;10.25
68841;PMS5003;55849;48.482;2.332;2022-07-23T10:48:30;21.00;18.00;11.50
68841;PMS5003;55849;48.482;2.332;2022-07-23T10:51:31;18.00;15.25;11.50
68841;PMS5003;55849;48.482;2.332;2022-07-23T10:54:34;19.50;18.50;13.25
68841;PMS5003;55849;48.482;2.332;2022-07-23T10:57:47;18.50;18.50;11.75
68841;PMS5003;55849;48.482;2.332;2022-07-23T11:00:49;20.50;15.75;12.25
68841;PMS5003;55849;48.482;2.332;2022-07-23T11:03:55;20.00;18.75;11.50
68841;PMS5003;55849;48.482;2.332;2022-07-23T11:07:07;23.25;17.00;10.00
68841;PMS5003;55849;48.482;2.332;2022-07-23T11:10:15;18.75;17.50;10.75
68841;PMS5003;55849;48.482;2.332;2022-07-23T11:13:37;18.25;17.00;13.50
68841;PMS5003;55849;48.482;2.332;2022-07-23T11:16:46;18.00;17.75;12.00
68841;PMS5003;55849;48.482;2.332;2022-07-23T11:23:20;19.75;16.00;10.50
68841;PMS5003;55849;48.482;2.332;2022-07-23T11:29:44;16.50;14.25;10.25
68841;PMS5003;55849;48.482;2.332;2022-07-23T11:32:53;19.50;16.25;9.75
68841;PMS5003;55849;48.482;2.332;2022-07-23T11:36:01;15.50;15.50;11.50
68841;PMS5003;55849;48.482;2.332;2022-07-23T11:39:04;18.25;15.50;11.25
68841;PMS5003;55849;48.482;2.332;2022-07-23T11:42:09;21.75;16.25;11.00
68841;PMS5003;55849;48.482;2.332;2022-07-23T11:45:10;15.50;15.25;9.25
68841;PMS5003;55849;48.482;2.332;2022-07-23T11:48:16;16.25;15.50;10.00
68841;PMS5003;55849;48.482;2.332;2022-07-23T11:51:24;16.50;15.50;11.75
68841;PMS5003;55849;48.482;2.332;2022-07-23T11:54:26;17.50;16.50;9.75
68841;PMS5003;55849;48.482;2.332;2022-07-23T11:57:30;19.50;18.50;12.25
68841;PMS5003;55849;48.482;2.332;2022-07-23T12:00:33;15.50;15.00;10.00
68841;PMS5003;55849;48.482;2.332;2022-07-23T12:03:34;21.75;19.00;12.00
68841;PMS5003;55849;48.482;2.332;2022-07-23T12:06:37;16.50;16.50;12.00
